createdAt,value
2018-03-25T00:00:34.066Z,91.85
2018-03-25T00:01:34.057Z,91.75
2018-03-25T00:02:34.043Z,91.56
2018-03-25T00:03:34.038Z,91.47
2018-03-25T00:04:34.026Z,91.47
2018-03-25T00:05:34.019Z,91.38
2018-03-25T00:06:34.013Z,90.71
2018-03-25T00:07:33.998Z,90.71
2018-03-25T00:08:33.990Z,90.52
2018-03-25T00:09:33.981Z,90.71
2018-03-25T00:10:33.971Z,91.19
2018-03-25T00:11:33.962Z,91.09
2018-03-25T00:12:33.957Z,90.71
2018-03-25T00:13:33.947Z,90.43
2018-03-25T00:14:33.939Z,90.62
2018-03-25T00:15:33.930Z,90.43
2018-03-25T00:16:33.922Z,89.95
2018-03-25T00:17:33.907Z,89.76
2018-03-25T00:18:33.898Z,89.48
2018-03-25T00:19:33.888Z,89.58
2018-03-25T00:20:33.879Z,89.67
2018-03-25T00:21:33.871Z,89.39
2018-03-25T00:22:33.859Z,88.72
2018-03-25T00:23:33.850Z,89.00
2018-03-25T00:24:33.842Z,89.20
2018-03-25T00:25:33.834Z,88.34
2018-03-25T00:26:33.828Z,88.81
2018-03-25T00:27:33.817Z,88.62
2018-03-25T00:28:33.805Z,87.96
2018-03-25T00:29:33.797Z,88.15
2018-03-25T00:30:33.787Z,87.91
2018-03-25T00:31:33.780Z,87.77
2018-03-25T00:32:33.771Z,87.58
2018-03-25T00:33:33.764Z,87.49
2018-03-25T00:34:33.749Z,87.24
2018-03-25T00:35:33.739Z,86.82
2018-03-25T00:36:33.730Z,86.96
2018-03-25T00:37:33.722Z,87.20
2018-03-25T00:38:33.711Z,87.20
2018-03-25T00:39:33.702Z,87.62
2018-03-25T00:40:33.694Z,86.63
2018-03-25T00:41:33.685Z,86.35
2018-03-25T00:42:33.675Z,86.58
2018-03-25T00:43:33.665Z,86.68
2018-03-25T00:44:33.661Z,86.30
2018-03-25T00:45:33.652Z,86.39
2018-03-25T00:46:33.641Z,86.11
2018-03-25T00:47:33.633Z,85.91
2018-03-25T00:48:33.619Z,86.01
2018-03-25T00:49:33.612Z,85.53
2018-03-25T00:50:33.601Z,85.63
2018-03-25T00:51:33.591Z,85.44
2018-03-25T00:52:33.584Z,85.53
2018-03-25T00:53:33.575Z,85.16
2018-03-25T00:54:33.564Z,85.06
2018-03-25T00:55:33.555Z,85.16
2018-03-25T00:56:33.545Z,85.16
2018-03-25T00:57:33.537Z,84.59
2018-03-25T00:58:33.532Z,84.21
2018-03-25T00:59:33.522Z,84.59
2018-03-25T01:00:33.508Z,84.78
2018-03-25T01:01:33.499Z,84.40
2018-03-25T01:02:33.488Z,84.68
2018-03-25T01:03:33.481Z,84.30
2018-03-25T01:04:33.475Z,84.21
2018-03-25T01:05:33.467Z,84.59
2018-03-25T01:06:33.452Z,84.68
2018-03-25T01:07:33.483Z,84.68
2018-03-25T01:08:33.433Z,84.68
2018-03-25T01:09:33.431Z,84.59
2018-03-25T01:10:33.421Z,84.78
2018-03-25T01:11:33.406Z,84.49
2018-03-25T01:12:33.401Z,84.49
2018-03-25T01:13:33.389Z,84.40
2018-03-25T01:14:33.381Z,84.40
2018-03-25T01:15:33.368Z,84.68
2018-03-25T01:16:33.363Z,84.59
2018-03-25T01:17:33.354Z,84.59
2018-03-25T01:18:33.340Z,84.30
2018-03-25T01:19:33.330Z,84.21
2018-03-25T01:20:33.322Z,83.83
2018-03-25T01:21:33.314Z,83.45
2018-03-25T01:22:33.302Z,83.64
2018-03-25T01:23:33.294Z,83.73
2018-03-25T01:24:33.287Z,84.01
2018-03-25T01:25:33.285Z,84.01
2018-03-25T01:26:33.266Z,83.83
2018-03-25T01:27:33.256Z,83.64
2018-03-25T01:28:33.250Z,83.64
2018-03-25T01:29:33.242Z,83.73
2018-03-25T01:30:33.228Z,83.64
2018-03-25T01:31:33.219Z,83.54
2018-03-25T01:32:33.228Z,83.83
2018-03-25T01:33:33.200Z,84.01
2018-03-25T01:34:33.189Z,83.64
2018-03-25T01:35:33.181Z,83.69
2018-03-25T01:36:33.171Z,83.97
2018-03-25T01:37:33.162Z,84.92
2018-03-25T01:38:33.156Z,84.45
2018-03-25T01:39:33.147Z,84.74
2018-03-25T01:40:33.134Z,84.45
2018-03-25T01:41:33.125Z,84.83
2018-03-25T01:42:33.121Z,85.02
2018-03-25T01:43:33.112Z,85.30
2018-03-25T01:44:33.095Z,85.49
2018-03-25T01:45:33.087Z,85.40
2018-03-25T01:46:33.077Z,85.49
2018-03-25T01:47:33.068Z,85.30
2018-03-25T01:48:33.058Z,85.30
2018-03-25T01:49:33.054Z,85.49
2018-03-25T01:50:33.039Z,85.59
2018-03-25T01:51:33.029Z,85.68
2018-03-25T01:52:33.020Z,85.87
2018-03-25T01:53:33.011Z,86.16
2018-03-25T01:54:33.001Z,86.35
2018-03-25T01:55:32.992Z,86.49
2018-03-25T01:56:32.986Z,86.54
2018-03-25T01:57:32.977Z,86.44
2018-03-25T01:58:32.962Z,87.39
2018-03-25T01:59:32.953Z,87.11
2018-03-25T02:00:32.957Z,87.06
2018-03-25T02:01:32.938Z,87.06
2018-03-25T02:02:32.924Z,87.11
2018-03-25T02:03:32.915Z,87.06
2018-03-25T02:04:32.906Z,87.30
2018-03-25T02:05:32.898Z,87.06
2018-03-25T02:06:32.886Z,86.82
2018-03-25T02:07:32.876Z,87.20
2018-03-25T02:08:32.868Z,87.39
2018-03-25T02:09:32.859Z,87.45
2018-03-25T02:10:32.851Z,87.06
2018-03-25T02:11:32.842Z,87.16
2018-03-25T02:12:32.829Z,87.49
2018-03-25T02:13:32.820Z,87.06
2018-03-25T02:14:32.813Z,86.87
2018-03-25T02:15:32.804Z,86.97
2018-03-25T02:16:32.790Z,87.06
2018-03-25T02:17:32.781Z,87.82
2018-03-25T02:18:32.772Z,87.39
2018-03-25T02:19:32.761Z,86.78
2018-03-25T02:20:32.751Z,87.11
2018-03-25T02:21:32.742Z,87.11
2018-03-25T02:22:32.737Z,87.35
2018-03-25T02:23:32.739Z,87.25
2018-03-25T02:24:32.712Z,87.16
2018-03-25T02:25:32.709Z,87.25
2018-03-25T02:26:32.694Z,87.25
2018-03-25T02:27:32.686Z,86.97
2018-03-25T02:28:32.675Z,86.97
2018-03-25T02:29:32.667Z,86.97
2018-03-25T02:30:32.655Z,87.06
2018-03-25T02:31:32.647Z,87.06
2018-03-25T02:32:32.638Z,87.16
2018-03-25T02:33:32.629Z,87.25
2018-03-25T02:34:32.621Z,87.16
2018-03-25T02:35:32.614Z,86.97
2018-03-25T02:36:32.599Z,86.87
2018-03-25T02:37:32.589Z,87.35
2018-03-25T02:38:32.577Z,86.97
2018-03-25T02:39:32.568Z,87.16
2018-03-25T02:40:32.562Z,87.25
2018-03-25T02:41:32.559Z,86.97
2018-03-25T02:42:32.538Z,87.35
2018-03-25T02:43:32.531Z,87.06
2018-03-25T02:44:32.520Z,87.16
2018-03-25T02:45:32.524Z,86.97
2018-03-25T02:46:32.500Z,87.73
2018-03-25T02:47:32.492Z,87.92
2018-03-25T02:48:32.483Z,87.06
2018-03-25T02:49:32.472Z,88.10
2018-03-25T02:50:32.462Z,88.20
2018-03-25T02:51:32.454Z,87.82
2018-03-25T02:52:32.447Z,88.10
2018-03-25T02:53:32.437Z,88.29
2018-03-25T02:54:32.427Z,88.58
2018-03-25T02:55:32.418Z,89.11
2018-03-25T02:56:32.404Z,89.39
2018-03-25T02:57:32.395Z,89.96
2018-03-25T02:58:32.384Z,89.86
2018-03-25T02:59:32.373Z,90.15
2018-03-25T03:00:32.366Z,90.24
2018-03-25T03:01:32.355Z,89.86
2018-03-25T03:02:32.407Z,90.58
2018-03-25T03:03:32.336Z,90.77
2018-03-25T03:04:32.326Z,90.48
2018-03-25T03:05:32.315Z,90.86
2018-03-25T03:06:32.308Z,91.33
2018-03-25T03:07:32.300Z,91.71
2018-03-25T03:08:32.284Z,92.09
2018-03-25T03:09:32.274Z,92.38
2018-03-25T03:10:32.264Z,92.00
2018-03-25T03:11:32.255Z,92.38
2018-03-25T03:12:32.253Z,92.99
2018-03-25T03:13:32.238Z,92.80
2018-03-25T03:14:32.224Z,93.27
2018-03-25T03:15:32.213Z,93.08
2018-03-25T03:16:32.203Z,93.27
2018-03-25T03:17:32.194Z,93.56
2018-03-25T03:18:32.183Z,94.04
2018-03-25T03:19:32.173Z,94.13
2018-03-25T03:20:32.162Z,94.13
2018-03-25T03:21:32.151Z,95.07
2018-03-25T03:22:32.140Z,94.70
2018-03-25T03:23:32.129Z,95.17
2018-03-25T03:24:32.124Z,95.17
2018-03-25T03:25:32.113Z,95.83
2018-03-25T03:26:32.098Z,96.12
2018-03-25T03:27:32.087Z,96.31
2018-03-25T03:28:32.076Z,96.50
2018-03-25T03:29:32.067Z,96.97
2018-03-25T03:30:32.057Z,96.36
2018-03-25T03:31:32.049Z,95.98
2018-03-25T03:32:32.038Z,95.88
2018-03-25T03:33:32.028Z,95.60
2018-03-25T03:34:32.013Z,95.41
2018-03-25T03:35:32.002Z,94.46
2018-03-25T03:36:31.994Z,94.37
2018-03-25T03:37:31.985Z,94.46
2018-03-25T03:38:31.969Z,93.99
2018-03-25T03:39:31.960Z,93.65
2018-03-25T03:40:31.949Z,93.75
2018-03-25T03:41:31.939Z,93.27
2018-03-25T03:42:31.925Z,92.71
2018-03-25T03:43:31.915Z,93.08
2018-03-25T03:44:31.907Z,92.80
2018-03-25T03:45:31.899Z,92.90
2018-03-25T03:46:31.887Z,93.18
2018-03-25T03:47:31.876Z,92.99
2018-03-25T03:48:31.862Z,92.94
2018-03-25T03:49:31.851Z,93.18
2018-03-25T03:50:31.844Z,92.57
2018-03-25T03:51:31.834Z,92.66
2018-03-25T03:52:31.818Z,92.19
2018-03-25T03:53:31.810Z,92.09
2018-03-25T03:54:31.796Z,92.76
2018-03-25T03:55:31.787Z,92.94
2018-03-25T03:56:31.775Z,93.23
2018-03-25T03:57:31.766Z,93.32
2018-03-25T03:58:31.754Z,92.47
2018-03-25T03:59:31.744Z,92.66
2018-03-25T04:00:31.737Z,92.57
2018-03-25T04:01:31.724Z,92.38
2018-03-25T04:02:31.710Z,93.18
2018-03-25T04:03:31.700Z,93.08
2018-03-25T04:04:31.697Z,93.46
2018-03-25T04:05:31.683Z,93.65
2018-03-25T04:06:31.673Z,93.75
2018-03-25T04:07:31.656Z,94.13
2018-03-25T04:08:31.679Z,94.32
2018-03-25T04:09:31.639Z,94.60
2018-03-25T04:10:31.628Z,94.79
2018-03-25T04:11:31.613Z,95.55
2018-03-25T04:12:31.603Z,95.36
2018-03-25T04:13:31.592Z,95.88
2018-03-25T04:14:31.580Z,96.07
2018-03-25T04:15:31.570Z,95.78
2018-03-25T04:16:31.559Z,95.88
2018-03-25T04:17:31.548Z,96.92
2018-03-25T04:18:31.540Z,96.73
2018-03-25T04:19:31.533Z,96.45
2018-03-25T04:20:31.515Z,96.64
2018-03-25T04:21:31.505Z,97.02
2018-03-25T04:22:31.496Z,97.30
2018-03-25T04:23:31.486Z,97.68
2018-03-25T04:24:31.470Z,97.39
2018-03-25T04:25:31.460Z,97.49
2018-03-25T04:26:31.449Z,97.96
2018-03-25T04:27:31.438Z,97.68
2018-03-25T04:28:31.427Z,97.77
2018-03-25T04:29:31.417Z,97.30
2018-03-25T04:30:31.404Z,98.25
2018-03-25T04:31:31.394Z,97.87
2018-03-25T04:32:31.387Z,97.87
2018-03-25T04:33:31.376Z,98.44
2018-03-25T04:34:31.365Z,98.44
2018-03-25T04:35:31.350Z,98.44
2018-03-25T04:36:31.339Z,98.44
2018-03-25T04:37:31.327Z,98.34
2018-03-25T04:38:31.316Z,98.44
2018-03-25T04:39:31.307Z,99.01
2018-03-25T04:40:31.294Z,98.91
2018-03-25T04:41:31.284Z,98.63
2018-03-25T04:42:31.271Z,99.38
2018-03-25T04:43:31.260Z,98.91
2018-03-25T04:44:31.254Z,99.19
2018-03-25T04:45:31.243Z,99.29
2018-03-25T04:46:31.231Z,99.85
2018-03-25T04:47:31.220Z,99.10
2018-03-25T04:48:31.205Z,99.48
2018-03-25T04:49:31.194Z,99.38
2018-03-25T04:50:31.184Z,99.29
2018-03-25T04:51:31.174Z,99.48
2018-03-25T04:52:31.162Z,99.76
2018-03-25T04:53:31.150Z,99.48
2018-03-25T04:54:31.139Z,99.66
2018-03-25T04:55:31.128Z,99.10
2018-03-25T04:56:31.116Z,98.91
2018-03-25T04:57:31.106Z,99.10
2018-03-25T04:58:31.097Z,98.82
2018-03-25T04:59:31.086Z,99.66
2018-03-25T05:00:31.072Z,98.91
2018-03-25T05:01:31.061Z,98.91
2018-03-25T05:02:31.049Z,99.10
2018-03-25T05:03:31.037Z,99.10
2018-03-25T05:04:31.030Z,99.10
2018-03-25T05:05:31.020Z,98.82
2018-03-25T05:06:31.003Z,99.38
2018-03-25T05:07:30.993Z,99.99
2018-03-25T05:08:30.983Z,99.38
2018-03-25T05:09:30.971Z,99.95
2018-03-25T05:10:30.958Z,99.85
2018-03-25T05:11:30.948Z,99.95
2018-03-25T05:12:30.938Z,99.76
2018-03-25T05:13:30.926Z,99.95
2018-03-25T05:14:30.915Z,99.99
2018-03-25T05:15:30.901Z,99.99
2018-03-25T05:16:30.894Z,99.99
2018-03-25T05:17:30.884Z,99.99
2018-03-25T05:18:30.871Z,99.85
2018-03-25T05:19:30.862Z,99.76
2018-03-25T05:20:30.845Z,99.95
2018-03-25T05:21:30.836Z,99.76
2018-03-25T05:22:30.823Z,99.99
2018-03-25T05:23:30.811Z,99.99
2018-03-25T05:24:30.801Z,99.52
2018-03-25T05:25:30.791Z,99.57
2018-03-25T05:26:30.779Z,99.99
2018-03-25T05:27:30.769Z,99.99
2018-03-25T05:28:30.755Z,99.99
2018-03-25T05:29:30.744Z,99.99
2018-03-25T05:30:30.739Z,99.99
2018-03-25T05:31:30.727Z,99.99
2018-03-25T05:32:30.709Z,99.99
2018-03-25T05:33:30.698Z,99.99
2018-03-25T05:34:30.687Z,99.99
2018-03-25T05:35:30.676Z,99.99
2018-03-25T05:36:30.665Z,99.99
2018-03-25T05:37:30.653Z,99.99
2018-03-25T05:38:30.644Z,99.99
2018-03-25T05:39:30.634Z,99.99
2018-03-25T05:40:30.618Z,99.99
2018-03-25T05:41:30.608Z,99.85
2018-03-25T05:42:30.600Z,99.99
2018-03-25T05:43:30.589Z,99.85
2018-03-25T05:44:30.573Z,99.85
2018-03-25T05:45:30.562Z,99.48
2018-03-25T05:46:30.556Z,99.76
2018-03-25T05:47:30.539Z,99.57
2018-03-25T05:48:30.529Z,99.95
2018-03-25T05:49:30.521Z,99.95
2018-03-25T05:50:30.506Z,99.38
2018-03-25T05:51:30.495Z,99.29
2018-03-25T05:52:30.485Z,99.52
2018-03-25T05:53:30.472Z,99.66
2018-03-25T05:54:30.460Z,99.62
2018-03-25T05:55:30.449Z,99.71
2018-03-25T05:56:30.443Z,99.33
2018-03-25T05:57:30.432Z,98.96
2018-03-25T05:58:30.415Z,99.33
2018-03-25T05:59:30.405Z,99.24
2018-03-25T06:00:30.399Z,99.10
2018-03-25T06:01:30.388Z,98.35
2018-03-25T06:02:30.374Z,98.35
2018-03-25T06:03:30.362Z,97.49
2018-03-25T06:04:30.354Z,96.50
2018-03-25T06:05:30.341Z,96.31
2018-03-25T06:06:30.330Z,95.45
2018-03-25T06:07:30.320Z,94.56
2018-03-25T06:08:30.310Z,93.89
2018-03-25T06:09:30.300Z,92.85
2018-03-25T06:10:30.295Z,92.42
2018-03-25T06:11:30.283Z,91.38
2018-03-25T06:12:30.269Z,90.62
2018-03-25T06:13:30.260Z,90.09
2018-03-25T06:14:30.265Z,89.05
2018-03-25T06:15:30.244Z,88.20
2018-03-25T06:16:30.230Z,87.01
2018-03-25T06:17:30.229Z,85.96
2018-03-25T06:18:30.211Z,84.53
2018-03-25T06:19:30.204Z,83.72
2018-03-25T06:20:30.194Z,82.77
2018-03-25T06:21:30.190Z,82.49
2018-03-25T06:22:30.177Z,82.15
2018-03-25T06:23:30.168Z,80.53
2018-03-25T06:24:30.160Z,80.47
2018-03-25T06:25:30.153Z,79.62
2018-03-25T06:26:30.150Z,78.77
2018-03-25T06:27:30.136Z,78.33
2018-03-25T06:28:30.132Z,77.19
2018-03-25T06:29:30.125Z,76.52
2018-03-25T06:30:30.112Z,75.13
2018-03-25T06:31:30.105Z,74.94
2018-03-25T06:32:30.102Z,74.18
2018-03-25T06:33:30.096Z,73.26
2018-03-25T06:34:30.086Z,71.73
2018-03-25T06:35:30.080Z,70.88
2018-03-25T06:36:30.074Z,70.15
2018-03-25T06:37:30.066Z,69.20
2018-03-25T06:38:30.059Z,69.23
2018-03-25T06:39:30.054Z,67.90
2018-03-25T06:40:30.053Z,67.71
2018-03-25T06:41:30.046Z,67.27
2018-03-25T06:42:30.038Z,66.50
2018-03-25T06:43:30.033Z,66.44
2018-03-25T06:44:30.029Z,65.01
2018-03-25T06:45:30.024Z,64.85
2018-03-25T06:46:30.018Z,63.73
2018-03-25T06:47:30.014Z,62.97
2018-03-25T06:48:30.010Z,62.33
2018-03-25T06:49:30.006Z,61.66
2018-03-25T06:50:30.004Z,60.90
2018-03-25T06:51:29.998Z,59.84
2018-03-25T06:52:30.000Z,59.18
2018-03-25T06:53:29.996Z,58.70
2018-03-25T06:54:29.992Z,59.08
2018-03-25T06:55:29.990Z,58.89
2018-03-25T06:56:29.984Z,59.01
2018-03-25T06:57:29.981Z,57.70
2018-03-25T06:58:29.978Z,57.80
2018-03-25T06:59:29.978Z,56.10
2018-03-25T07:00:29.981Z,55.44
2018-03-25T07:01:29.973Z,55.24
2018-03-25T07:02:29.972Z,54.03
2018-03-25T07:03:29.971Z,53.55
2018-03-25T07:04:29.970Z,53.16
2018-03-25T07:05:29.970Z,52.97
2018-03-25T07:06:29.980Z,52.20
2018-03-25T07:07:29.970Z,52.01
2018-03-25T07:08:29.966Z,51.63
2018-03-25T07:09:29.967Z,51.61
2018-03-25T07:10:29.966Z,51.58
2018-03-25T07:11:29.969Z,51.65
2018-03-25T07:12:29.970Z,52.42
2018-03-25T07:13:29.972Z,53.11
2018-03-25T07:14:30.017Z,53.81
2018-03-25T07:15:29.967Z,53.36
2018-03-25T07:16:29.969Z,52.71
2018-03-25T07:17:29.969Z,52.26
2018-03-25T07:18:29.983Z,52.09
2018-03-25T07:19:29.973Z,50.65
2018-03-25T07:20:29.974Z,50.15
2018-03-25T07:21:29.988Z,50.17
2018-03-25T07:22:29.981Z,49.29
2018-03-25T07:23:29.979Z,48.40
2018-03-25T07:24:29.985Z,49.05
2018-03-25T07:25:29.987Z,49.62
2018-03-25T07:26:29.989Z,50.22
2018-03-25T07:27:29.992Z,50.07
2018-03-25T07:28:29.992Z,50.07
2018-03-25T07:29:29.994Z,50.46
2018-03-25T07:30:29.996Z,50.93
2018-03-25T07:31:30.013Z,50.65
2018-03-25T07:32:30.003Z,51.13
2018-03-25T07:33:30.010Z,51.68
2018-03-25T07:34:30.009Z,51.87
2018-03-25T07:35:30.016Z,51.79
2018-03-25T07:36:30.016Z,51.70
2018-03-25T07:37:30.020Z,51.70
2018-03-25T07:38:30.030Z,51.68
2018-03-25T07:39:30.031Z,51.68
2018-03-25T07:40:30.030Z,51.75
2018-03-25T07:41:30.036Z,52.44
2018-03-25T07:42:30.040Z,51.77
2018-03-25T07:43:30.086Z,51.58
2018-03-25T07:44:30.049Z,51.70
2018-03-25T07:45:30.052Z,51.44
2018-03-25T07:46:30.060Z,51.95
2018-03-25T07:47:30.065Z,50.92
2018-03-25T07:48:30.066Z,51.04
2018-03-25T07:49:30.074Z,50.29
2018-03-25T07:50:30.082Z,48.83
2018-03-25T07:51:30.084Z,48.07
2018-03-25T07:52:30.085Z,47.92
2018-03-25T07:53:30.091Z,46.96
2018-03-25T07:54:30.096Z,46.00
2018-03-25T07:55:30.102Z,45.90
2018-03-25T07:56:30.107Z,45.88
2018-03-25T07:57:30.111Z,45.71
2018-03-25T07:58:30.117Z,45.15
2018-03-25T07:59:30.122Z,44.10
2018-03-25T08:00:30.132Z,43.57
2018-03-25T08:01:30.137Z,43.23
2018-03-25T08:02:30.138Z,42.40
2018-03-25T08:03:30.144Z,41.53
2018-03-25T08:04:30.156Z,40.39
2018-03-25T08:05:30.161Z,39.54
2018-03-25T08:06:30.162Z,38.20
2018-03-25T08:07:30.169Z,37.93
2018-03-25T08:08:30.179Z,36.87
2018-03-25T08:09:30.186Z,36.79
2018-03-25T08:10:30.188Z,35.94
2018-03-25T08:11:30.196Z,34.99
2018-03-25T08:12:30.202Z,34.28
2018-03-25T08:13:30.211Z,34.10
2018-03-25T08:14:30.217Z,34.12
2018-03-25T08:15:30.224Z,33.72
2018-03-25T08:16:30.232Z,33.72
2018-03-25T08:17:30.245Z,32.94
2018-03-25T08:18:30.249Z,33.14
2018-03-25T08:19:30.257Z,32.56
2018-03-25T08:20:30.262Z,32.76
2018-03-25T08:21:30.277Z,32.29
2018-03-25T08:22:30.280Z,32.21
2018-03-25T08:23:30.293Z,31.56
2018-03-25T08:24:30.293Z,31.67
2018-03-25T08:25:30.302Z,30.24
2018-03-25T08:26:30.311Z,30.26
2018-03-25T08:27:30.320Z,29.28
2018-03-25T08:28:30.328Z,29.11
2018-03-25T08:29:30.338Z,28.54
2018-03-25T08:30:30.345Z,27.86
2018-03-25T08:31:30.354Z,27.53
2018-03-25T08:32:30.364Z,27.40
2018-03-25T08:33:30.374Z,27.91
2018-03-25T08:34:30.382Z,28.09
2018-03-25T08:35:30.393Z,27.87
2018-03-25T08:36:30.407Z,28.62
2018-03-25T08:37:30.417Z,28.83
2018-03-25T08:38:30.426Z,29.63
2018-03-25T08:39:30.431Z,29.06
2018-03-25T08:40:30.446Z,28.68
2018-03-25T08:41:30.455Z,28.79
2018-03-25T08:42:30.461Z,28.23
2018-03-25T08:43:30.470Z,28.25
2018-03-25T08:44:30.485Z,27.87
2018-03-25T08:45:30.492Z,26.50
2018-03-25T08:46:30.530Z,26.39
2018-03-25T08:47:30.512Z,26.65
2018-03-25T08:48:30.530Z,27.06
2018-03-25T08:49:30.534Z,27.45
2018-03-25T08:50:30.549Z,27.28
2018-03-25T08:51:30.561Z,26.92
2018-03-25T08:52:30.568Z,26.64
2018-03-25T08:53:30.579Z,25.58
2018-03-25T08:54:30.594Z,25.29
2018-03-25T08:55:30.606Z,24.12
2018-03-25T08:56:30.614Z,24.33
2018-03-25T08:57:30.627Z,23.99
2018-03-25T08:58:30.637Z,24.00
2018-03-25T08:59:30.649Z,24.39
2018-03-25T09:00:30.662Z,24.17
2018-03-25T09:01:30.675Z,24.63
2018-03-25T09:02:30.687Z,25.25
2018-03-25T09:03:30.700Z,26.53
2018-03-25T09:04:30.713Z,27.22
2018-03-25T09:05:30.725Z,27.66
2018-03-25T09:06:30.736Z,26.59
2018-03-25T09:07:30.749Z,26.20
2018-03-25T09:08:30.766Z,26.12
2018-03-25T09:09:30.780Z,25.63
2018-03-25T09:10:30.788Z,25.23
2018-03-25T09:11:30.801Z,25.41
2018-03-25T09:12:30.818Z,25.96
2018-03-25T09:13:30.831Z,26.56
2018-03-25T09:14:30.842Z,26.53
2018-03-25T09:15:30.855Z,26.75
2018-03-25T09:16:30.868Z,26.70
2018-03-25T09:17:30.886Z,26.21
2018-03-25T09:18:30.894Z,25.65
2018-03-25T09:19:30.909Z,25.27
2018-03-25T09:20:30.922Z,25.20
2018-03-25T09:21:30.937Z,25.14
2018-03-25T09:22:30.953Z,24.29
2018-03-25T09:23:30.969Z,22.58
2018-03-25T09:24:30.978Z,23.42
2018-03-25T09:25:30.993Z,24.40
2018-03-25T09:26:31.010Z,24.84
2018-03-25T09:27:31.025Z,24.08
2018-03-25T09:28:31.038Z,22.64
2018-03-25T09:29:31.050Z,21.92
2018-03-25T09:30:31.065Z,22.11
2018-03-25T09:31:31.080Z,22.13
2018-03-25T09:32:31.096Z,21.69
2018-03-25T09:33:31.111Z,22.30
2018-03-25T09:34:31.124Z,21.89
2018-03-25T09:35:31.142Z,22.16
2018-03-25T09:36:31.156Z,21.97
2018-03-25T09:37:31.171Z,22.75
2018-03-25T09:38:31.185Z,22.97
2018-03-25T09:39:31.201Z,22.80
2018-03-25T09:40:31.220Z,22.50
2018-03-25T09:41:31.236Z,22.14
2018-03-25T09:42:31.247Z,21.48
2018-03-25T09:43:31.262Z,20.75
2018-03-25T09:44:31.283Z,21.11
2018-03-25T09:45:31.298Z,22.39
2018-03-25T09:46:31.310Z,22.02
2018-03-25T09:47:31.326Z,21.74
2018-03-25T09:48:31.341Z,20.89
2018-03-25T09:49:31.357Z,20.79
2018-03-25T09:50:31.373Z,19.54
2018-03-25T09:51:31.389Z,19.63
2018-03-25T09:52:31.408Z,19.79
2018-03-25T09:53:31.427Z,20.37
2018-03-25T09:54:31.440Z,21.03
2018-03-25T09:55:31.454Z,21.81
2018-03-25T09:56:31.467Z,22.19
2018-03-25T09:57:31.485Z,21.99
2018-03-25T09:58:31.512Z,21.89
2018-03-25T09:59:31.515Z,22.28
2018-03-25T10:00:31.531Z,22.38
2018-03-25T10:01:31.548Z,22.52
2018-03-25T10:02:31.562Z,22.23
2018-03-25T10:03:31.578Z,22.16
2018-03-25T10:04:31.601Z,22.78
2018-03-25T10:05:31.615Z,22.52
2018-03-25T10:06:31.633Z,22.36
2018-03-25T10:07:31.647Z,21.25
2018-03-25T10:08:31.659Z,20.98
2018-03-25T10:09:31.676Z,21.98
2018-03-25T10:10:31.691Z,22.87
2018-03-25T10:11:31.763Z,22.76
2018-03-25T10:12:31.724Z,22.72
2018-03-25T10:13:31.741Z,22.52
2018-03-25T10:14:31.757Z,23.15
2018-03-25T10:15:31.772Z,22.55
2018-03-25T10:16:31.790Z,22.38
2018-03-25T10:17:31.805Z,21.89
2018-03-25T10:18:31.824Z,21.59
2018-03-25T10:19:31.842Z,21.12
2018-03-25T10:20:31.859Z,21.04
2018-03-25T10:21:31.870Z,21.64
2018-03-25T10:22:31.886Z,21.92
2018-03-25T10:23:31.903Z,22.49
2018-03-25T10:24:31.921Z,23.38
2018-03-25T10:25:31.939Z,23.41
2018-03-25T10:26:31.950Z,23.45
2018-03-25T10:27:31.966Z,23.69
2018-03-25T10:28:31.982Z,22.85
2018-03-25T10:29:31.997Z,20.92
2018-03-25T10:30:32.013Z,20.94
2018-03-25T10:31:32.028Z,19.57
2018-03-25T10:32:32.044Z,18.29
2018-03-25T10:33:32.062Z,18.21
2018-03-25T10:34:32.076Z,17.02
2018-03-25T10:35:32.092Z,17.24
2018-03-25T10:36:32.112Z,16.47
2018-03-25T10:37:32.129Z,16.18
2018-03-25T10:38:32.144Z,16.23
2018-03-25T10:39:32.160Z,16.28
2018-03-25T10:40:32.173Z,17.05
2018-03-25T10:41:32.190Z,17.83
2018-03-25T10:42:32.204Z,18.12
2018-03-25T10:43:32.275Z,18.50
2018-03-25T10:44:32.238Z,18.80
2018-03-25T10:45:32.253Z,19.21
2018-03-25T10:46:32.270Z,18.75
2018-03-25T10:47:32.334Z,17.98
2018-03-25T10:49:32.323Z,18.29
2018-03-25T10:50:32.330Z,18.37
2018-03-25T10:51:32.350Z,17.90
2018-03-25T10:52:32.365Z,18.00
2018-03-25T10:53:32.377Z,17.71
2018-03-25T10:54:32.392Z,18.08
2018-03-25T10:55:32.408Z,17.83
2018-03-25T10:56:32.427Z,19.10
2018-03-25T10:57:32.444Z,20.39
2018-03-25T10:58:32.455Z,19.53
2018-03-25T10:59:32.474Z,19.65
2018-03-25T11:00:32.490Z,18.98
2018-03-25T11:01:32.501Z,18.79
2018-03-25T11:02:32.517Z,19.26
2018-03-25T11:03:32.537Z,18.95
2018-03-25T11:04:32.553Z,18.60
2018-03-25T11:05:32.566Z,19.55
2018-03-25T11:06:32.579Z,20.43
2018-03-25T11:07:32.600Z,22.31
2018-03-25T11:08:32.612Z,22.34
2018-03-25T11:09:32.629Z,20.86
2018-03-25T11:10:32.647Z,20.19
2018-03-25T11:11:32.658Z,19.68
2018-03-25T11:12:32.680Z,19.35
2018-03-25T11:13:32.690Z,20.30
2018-03-25T11:14:32.704Z,20.77
2018-03-25T11:15:32.760Z,22.23
2018-03-25T11:16:32.736Z,22.85
2018-03-25T11:17:32.754Z,22.75
2018-03-25T11:18:32.769Z,22.87
2018-03-25T11:19:32.784Z,22.10
2018-03-25T11:20:32.793Z,21.12
2018-03-25T11:21:32.813Z,20.72
2018-03-25T11:22:32.826Z,21.09
2018-03-25T11:23:32.839Z,20.68
2018-03-25T11:24:32.854Z,21.42
2018-03-25T11:25:32.873Z,22.39
2018-03-25T11:26:32.880Z,24.05
2018-03-25T11:27:32.896Z,25.04
2018-03-25T11:28:32.908Z,25.25
2018-03-25T11:29:32.924Z,24.77
2018-03-25T11:30:32.937Z,24.18
2018-03-25T11:31:32.957Z,24.17
2018-03-25T11:32:32.967Z,24.74
2018-03-25T11:33:32.977Z,24.74
2018-03-25T11:34:32.992Z,24.11
2018-03-25T11:35:33.005Z,25.08
2018-03-25T11:36:33.018Z,25.83
2018-03-25T11:37:33.025Z,26.59
2018-03-25T11:38:33.037Z,26.97
2018-03-25T11:39:33.048Z,27.44
2018-03-25T11:40:33.060Z,28.00
2018-03-25T11:41:33.070Z,28.18
2018-03-25T11:42:33.080Z,28.76
2018-03-25T11:43:33.091Z,29.21
2018-03-25T11:44:33.099Z,29.39
2018-03-25T11:45:33.110Z,29.65
2018-03-25T11:46:33.116Z,30.66
2018-03-25T11:47:33.133Z,31.82
2018-03-25T11:48:33.134Z,32.87
2018-03-25T11:49:33.144Z,33.54
2018-03-25T11:50:33.151Z,33.84
2018-03-25T11:51:33.155Z,34.49
2018-03-25T11:52:33.162Z,34.70
2018-03-25T11:53:33.173Z,35.18
2018-03-25T11:54:33.178Z,35.39
2018-03-25T11:55:33.181Z,35.30
2018-03-25T11:56:33.188Z,35.22
2018-03-25T11:57:33.192Z,35.22
2018-03-25T11:58:33.198Z,34.99
2018-03-25T11:59:33.203Z,35.26
2018-03-25T12:00:33.214Z,35.42
2018-03-25T12:01:33.218Z,36.34
2018-03-25T12:02:33.222Z,36.44
2018-03-25T12:03:33.228Z,37.49
2018-03-25T12:04:33.232Z,37.87
2018-03-25T12:05:33.232Z,38.16
2018-03-25T12:06:33.236Z,38.93
2018-03-25T12:07:33.240Z,39.41
2018-03-25T12:08:33.244Z,39.72
2018-03-25T12:09:33.249Z,39.23
2018-03-25T12:10:33.252Z,39.54
2018-03-25T12:11:33.255Z,39.93
2018-03-25T12:12:33.259Z,40.05
2018-03-25T12:13:33.266Z,40.05
2018-03-25T12:14:33.269Z,39.37
2018-03-25T12:15:33.276Z,39.37
2018-03-25T12:16:33.275Z,39.49
2018-03-25T12:17:33.276Z,39.39
2018-03-25T12:18:33.276Z,38.74
2018-03-25T12:19:33.290Z,38.24
2018-03-25T12:20:33.284Z,38.35
2018-03-25T12:21:33.286Z,38.26
2018-03-25T12:22:33.288Z,38.66
2018-03-25T12:23:33.293Z,38.76
2018-03-25T12:24:33.297Z,38.78
2018-03-25T12:25:33.299Z,38.68
2018-03-25T12:26:33.301Z,37.91
2018-03-25T12:27:33.307Z,38.10
2018-03-25T12:28:33.312Z,36.66
2018-03-25T12:29:33.311Z,36.37
2018-03-25T12:30:33.312Z,35.49
2018-03-25T12:31:33.315Z,36.24
2018-03-25T12:32:33.319Z,36.91
2018-03-25T12:33:33.325Z,36.99
2018-03-25T12:34:33.329Z,36.70
2018-03-25T12:35:33.328Z,37.37
2018-03-25T12:36:33.330Z,37.57
2018-03-25T12:37:33.334Z,38.14
2018-03-25T12:38:33.342Z,37.95
2018-03-25T12:39:33.340Z,37.85
2018-03-25T12:40:33.342Z,38.12
2018-03-25T12:41:33.344Z,38.12
2018-03-25T12:42:33.348Z,38.51
2018-03-25T12:43:33.350Z,38.60
2018-03-25T12:44:33.352Z,38.51
2018-03-25T12:45:33.358Z,37.93
2018-03-25T12:46:33.411Z,38.22
2018-03-25T12:47:33.363Z,38.60
2018-03-25T12:48:33.366Z,38.59
2018-03-25T12:49:33.368Z,38.85
2018-03-25T12:50:33.366Z,39.31
2018-03-25T12:51:33.368Z,39.62
2018-03-25T12:52:33.372Z,39.91
2018-03-25T12:53:33.374Z,40.48